Time;durP1;ratioP1;P1;durP2;ratioP2;P2;SDS_P1;SDS_P2;PMS_P1;PMS_P2;Temp;Humidity;BMP_temperature;BMP_pressure;BME280_temperature;BME280_humidity;BME280_pressure;Samples;Min_cycle;Max_cycle;Signal;HPM_P1;HPM_P2
2023/02/22 00:00:58;;;;;;;99.90;31.40;;;;;;;4.67;100.00;101643.41;5055488;28;20075;-83
2023/02/22 00:03:02;;;;;;;100.80;30.25;;;;;;;4.65;100.00;101638.22;5044392;28;20041;-84
2023/02/22 00:05:30;;;;;;;89.93;29.88;;;;;;;4.64;100.00;101643.56;5055904;28;20033;-83
2023/02/22 00:07:56;;;;;;;92.82;30.63;;;;;;;4.62;100.00;101633.09;5055485;28;20032;-83
2023/02/22 00:10:22;;;;;;;91.57;29.08;;;;;;;4.62;100.00;101637.53;5055240;28;20481;-84
2023/02/22 00:12:50;;;;;;;94.22;30.50;;;;;;;4.59;100.00;101633.28;5054681;28;20454;-83
2023/02/22 00:15:19;;;;;;;100.72;31.60;;;;;;;4.57;100.00;101630.72;5055049;28;20025;-84
2023/02/22 00:17:45;;;;;;;90.75;28.45;;;;;;;4.58;100.00;101629.78;5054922;28;20128;-83
2023/02/22 00:20:12;;;;;;;93.85;29.48;;;;;;;4.58;100.00;101627.16;5055223;28;20107;-83
2023/02/22 00:22:48;;;;;;;91.47;29.00;;;;;;;4.57;100.00;101624.59;5054942;28;20119;-83
2023/02/22 00:25:18;;;;;;;93.45;29.10;;;;;;;4.54;100.00;101615.06;5054795;28;20416;-82
2023/02/22 00:27:44;;;;;;;86.57;29.33;;;;;;;4.56;100.00;101617.63;5054485;28;20453;-83
2023/02/22 00:30:18;;;;;;;89.22;28.88;;;;;;;4.54;100.00;101617.69;5055353;28;20144;-83
2023/02/22 00:32:45;;;;;;;82.35;26.25;;;;;;;4.52;100.00;101619.59;5054503;28;20037;-83
2023/02/22 00:35:13;;;;;;;79.80;27.92;;;;;;;4.51;100.00;101619.63;5055174;28;20111;-82
2023/02/22 00:37:40;;;;;;;90.50;27.65;;;;;;;4.46;100.00;101611.97;5054616;28;20091;-82
2023/02/22 00:40:08;;;;;;;83.90;27.17;;;;;;;4.45;100.00;101619.97;5054528;28;20059;-83
2023/02/22 00:42:33;;;;;;;83.63;28.50;;;;;;;4.43;100.00;101619.19;5053568;28;20469;-83
2023/02/22 00:44:58;;;;;;;90.18;29.17;;;;;;;4.40;100.00;101612.28;5053968;28;20036;-82
2023/02/22 00:47:25;;;;;;;86.30;28.80;;;;;;;4.38;100.00;101617.66;5054207;28;20025;-83
2023/02/22 00:49:50;;;;;;;78.10;27.88;;;;;;;4.36;100.00;101618.66;5053160;28;20045;-83
2023/02/22 00:52:16;;;;;;;78.72;27.17;;;;;;;4.35;100.00;101620.44;5036578;28;20052;-83
2023/02/22 00:54:41;;;;;;;77.03;26.92;;;;;;;4.33;100.00;101614.41;5054256;28;20036;-82
2023/02/22 00:57:07;;;;;;;83.30;27.02;;;;;;;4.30;100.00;101614.56;5054499;28;20488;-83
2023/02/22 00:59:33;;;;;;;78.72;27.25;;;;;;;4.29;100.00;101617.28;5054700;28;20090;-83
2023/02/22 01:01:58;;;;;;;83.70;28.30;;;;;;;4.28;100.00;101612.94;5052724;28;20111;-83
2023/02/22 01:04:23;;;;;;;80.78;26.13;;;;;;;4.27;100.00;101611.22;5054413;28;20029;-82
2023/02/22 01:06:49;;;;;;;78.68;27.70;;;;;;;4.23;100.00;101616.66;5053967;28;20028;-82
2023/02/22 01:09:14;;;;;;;75.88;26.92;;;;;;;4.23;100.00;101615.81;5054307;28;20108;-82
2023/02/22 01:11:40;;;;;;;79.93;26.60;;;;;;;4.21;100.00;101612.38;5054150;28;20056;-82
2023/02/22 01:14:08;;;;;;;72.60;27.23;;;;;;;4.20;100.00;101616.81;5052443;28;20029;-82
2023/02/22 01:16:34;;;;;;;89.05;29.83;;;;;;;4.20;100.00;101608.91;5054148;28;20044;-82
2023/02/22 01:19:00;;;;;;;92.70;30.00;;;;;;;4.21;100.00;101609.75;5052549;28;20041;-82
2023/02/22 01:21:25;;;;;;;93.97;34.40;;;;;;;4.18;100.00;101604.66;5054033;28;20033;-81
2023/02/22 01:23:51;;;;;;;104.53;36.92;;;;;;;4.18;100.00;101599.38;5053415;28;20033;-82
2023/02/22 01:26:16;;;;;;;104.57;35.95;;;;;;;4.16;100.00;101602.09;5053786;28;20449;-81
2023/02/22 01:28:42;;;;;;;84.00;31.77;;;;;;;4.14;100.00;101603.13;5053415;28;20388;-82
2023/02/22 01:31:07;;;;;;;85.97;30.45;;;;;;;4.14;100.00;101600.50;5034988;28;20397;-82
2023/02/22 01:33:33;;;;;;;94.32;31.17;;;;;;;4.13;100.00;101599.63;5053618;28;20036;-81
2023/02/22 01:35:59;;;;;;;88.03;30.85;;;;;;;4.12;100.00;101597.06;5053371;28;20036;-81
2023/02/22 01:38:24;;;;;;;85.05;29.88;;;;;;;4.10;100.00;101591.03;5052857;28;20466;-81
2023/02/22 01:40:51;;;;;;;87.72;30.38;;;;;;;4.08;100.00;101600.81;5053167;28;20082;-82
2023/02/22 01:43:31;;;;;;;86.43;29.83;;;;;;;4.03;100.00;101585.22;5053364;28;20021;-81
2023/02/22 01:46:22;;;;;;;84.32;29.90;;;;;;;3.98;100.00;101585.44;5053140;28;20029;-81
2023/02/22 01:49:05;;;;;;;76.80;29.10;;;;;;;3.96;100.00;101579.41;5053184;28;20416;-81
2023/02/22 01:51:38;;;;;;;68.93;26.77;;;;;;;3.93;100.00;101578.75;5053831;28;20047;-82
2023/02/22 01:54:15;;;;;;;81.38;27.23;;;;;;;3.89;100.00;101581.50;5053178;28;20028;-82
2023/02/22 01:56:55;;;;;;;80.63;28.33;;;;;;;3.85;100.00;101569.44;5053359;28;20380;-82
2023/02/22 01:59:21;;;;;;;71.18;28.05;;;;;;;3.82;100.00;101571.34;5053346;28;20025;-81
2023/02/22 02:01:47;;;;;;;66.53;26.80;;;;;;;3.75;100.00;101568.19;5053157;28;20064;-80
2023/02/22 02:04:24;;;;;;;72.25;28.85;;;;;;;3.73;100.00;101570.03;5053337;28;20039;-81
2023/02/22 02:06:52;;;;;;;68.88;27.85;;;;;;;3.68;100.00;101566.81;5059786;28;20036;-81
2023/02/22 02:09:29;;;;;;;80.53;29.27;;;;;;;3.64;100.00;101565.25;5068828;28;20024;-83
2023/02/22 02:11:56;;;;;;;74.28;28.25;;;;;;;3.60;100.00;101563.69;5050640;28;20032;-81
2023/02/22 02:14:21;;;;;;;65.45;27.48;;;;;;;3.58;100.00;101558.50;5065737;28;20117;-81
2023/02/22 02:16:50;;;;;;;74.95;28.70;;;;;;;3.54;100.00;101551.72;5061778;28;20037;-82
2023/02/22 02:19:37;;;;;;;78.80;28.95;;;;;;;3.53;100.00;101557.88;5052015;28;20043;-82
2023/02/22 02:22:02;;;;;;;77.93;29.48;;;;;;;3.51;100.00;101554.50;5051515;28;20033;-81
2023/02/22 02:24:49;;;;;;;71.30;27.85;;;;;;;3.52;100.00;101553.53;5053153;28;20093;-82
2023/02/22 02:27:21;;;;;;;79.47;30.00;;;;;;;3.50;100.00;101551.00;5052667;28;20122;-81
2023/02/22 02:29:50;;;;;;;80.13;29.63;;;;;;;3.45;100.00;101545.13;5052838;28;20474;-82
2023/02/22 02:32:30;;;;;;;75.97;29.20;;;;;;;3.41;100.00;101545.34;5052571;28;20029;-81
2023/02/22 02:35:20;;;;;;;81.78;28.77;;;;;;;3.31;100.00;101539.66;5052514;28;20217;-81
2023/02/22 02:38:07;;;;;;;73.80;26.77;;;;;;;3.22;100.00;101540.13;5051644;28;20548;-81
2023/02/22 02:40:37;;;;;;;85.38;30.00;;;;;;;3.14;100.00;101536.06;5053124;28;20058;-81
2023/02/22 02:43:14;;;;;;;85.00;30.80;;;;;;;3.10;100.00;101529.25;5052256;28;20029;-82
2023/02/22 02:46:02;;;;;;;84.25;29.58;;;;;;;3.02;100.00;101531.41;5052766;28;20041;-82
2023/02/22 02:48:31;;;;;;;81.00;29.73;;;;;;;2.93;100.00;101524.81;5052777;28;20082;-81
2023/02/22 02:51:00;;;;;;;84.68;29.40;;;;;;;2.87;100.00;101521.63;5051460;28;20358;-82
2023/02/22 02:53:33;;;;;;;91.38;29.17;;;;;;;2.81;100.00;101514.88;5052252;28;20037;-81
2023/02/22 02:55:59;;;;;;;95.80;29.88;;;;;;;2.73;100.00;101510.00;5051279;28;20108;-82
2023/02/22 02:58:25;;;;;;;93.70;30.58;;;;;;;2.68;100.00;101506.72;5052178;28;20112;-81
2023/02/22 03:00:54;;;;;;;98.50;30.48;;;;;;;2.65;100.00;101504.22;5052173;28;20112;-81
2023/02/22 03:03:52;;;;;;;99.72;31.08;;;;;;;2.64;100.00;101500.78;5052258;28;20025;-81
2023/02/22 03:06:55;;;;;;;90.05;30.33;;;;;;;2.65;100.00;101499.81;5051963;28;20048;-81
2023/02/22 03:09:43;;;;;;;93.32;30.15;;;;;;;2.68;100.00;101492.75;5040832;28;20132;-81
2023/02/22 03:12:29;;;;;;;105.55;31.58;;;;;;;2.67;100.00;101491.03;5052283;28;20038;-82
2023/02/22 03:15:05;;;;;;;92.03;29.77;;;;;;;2.68;100.00;101490.09;5052587;28;20033;-82
2023/02/22 03:17:44;;;;;;;94.65;30.63;;;;;;;2.70;100.00;101490.88;5052363;28;20125;-82
2023/02/22 03:20:20;;;;;;;95.63;31.58;;;;;;;2.71;100.00;101476.81;5051758;28;20461;-82
2023/02/22 03:22:57;;;;;;;103.60;31.70;;;;;;;2.73;100.00;101470.59;5052357;28;20392;-81
2023/02/22 03:25:34;;;;;;;99.13;32.35;;;;;;;2.75;100.00;101457.38;5051843;28;20028;-82
2023/02/22 03:28:06;;;;;;;89.90;31.33;;;;;;;2.78;100.00;101457.22;5052217;28;20163;-82
2023/02/22 03:30:45;;;;;;;103.05;32.67;;;;;;;2.80;100.00;101450.09;5052462;28;20035;-82
2023/02/22 03:33:19;;;;;;;104.25;32.78;;;;;;;2.78;100.00;101450.16;5053489;28;20025;-81
2023/02/22 03:35:55;;;;;;;97.80;31.33;;;;;;;2.77;100.00;101451.09;5055601;28;20051;-82
2023/02/22 03:38:24;;;;;;;102.72;32.05;;;;;;;2.78;100.00;101436.19;5054248;28;20424;-81
2023/02/22 03:40:53;;;;;;;109.13;30.67;;;;;;;2.79;100.00;101444.00;5056019;28;20512;-81
2023/02/22 03:43:24;;;;;;;100.40;33.15;;;;;;;2.82;100.00;101441.22;5055391;28;20067;-82
2023/02/22 03:45:50;;;;;;;116.80;32.53;;;;;;;2.83;100.00;101440.28;5055817;28;20040;-81
2023/02/22 03:48:36;;;;;;;104.10;33.92;;;;;;;2.83;100.00;101442.06;5055185;28;20028;-81
2023/02/22 03:51:03;;;;;;;101.45;32.70;;;;;;;2.82;100.00;101441.22;5055570;28;20033;-81
2023/02/22 03:53:31;;;;;;;111.85;34.22;;;;;;;2.82;100.00;101441.22;5055203;28;20033;-81
2023/02/22 03:55:58;;;;;;;111.72;32.88;;;;;;;2.81;100.00;101423.75;5055551;28;20039;-81
2023/02/22 03:58:30;;;;;;;117.80;34.05;;;;;;;2.83;100.00;101418.41;5054868;28;20033;-81
2023/02/22 04:00:55;;;;;;;110.25;33.35;;;;;;;2.82;100.00;101416.69;5055573;28;20029;-80
2023/02/22 04:03:22;;;;;;;110.57;33.42;;;;;;;2.80;100.00;101419.41;5054923;28;20078;-81
2023/02/22 04:05:48;;;;;;;108.38;33.45;;;;;;;2.80;100.00;101419.41;5055267;28;20036;-81
2023/02/22 04:08:13;;;;;;;110.90;33.08;;;;;;;2.81;100.00;101407.97;5054811;28;20029;-81
2023/02/22 04:10:38;;;;;;;112.05;34.45;;;;;;;2.82;100.00;101403.56;5055253;28;20033;-81
2023/02/22 04:13:05;;;;;;;101.40;33.38;;;;;;;2.81;100.00;101397.47;5055158;28;20465;-81
2023/02/22 04:15:31;;;;;;;112.10;33.15;;;;;;;2.81;100.00;101396.63;5054611;28;20040;-81
2023/02/22 04:17:56;;;;;;;114.85;33.67;;;;;;;2.76;100.00;101410.00;5036937;28;20021;-81
2023/02/22 04:20:24;;;;;;;98.63;32.03;;;;;;;2.73;100.00;101393.50;5054756;28;20029;-82
2023/02/22 04:22:52;;;;;;;98.50;31.92;;;;;;;2.71;100.00;101398.00;5054073;28;20083;-82
2023/02/22 04:25:17;;;;;;;97.20;31.52;;;;;;;2.70;100.00;101394.50;5054702;28;20083;-81
2023/02/22 04:27:43;;;;;;;109.90;33.13;;;;;;;2.71;100.00;101393.56;5055170;28;20457;-81
2023/02/22 04:30:10;;;;;;;98.88;30.73;;;;;;;2.72;100.00;101384.78;5055014;28;20143;-82
2023/02/22 04:32:36;;;;;;;97.47;31.65;;;;;;;2.73;100.00;101389.13;5054789;28;20029;-81
2023/02/22 04:35:02;;;;;;;102.05;31.92;;;;;;;2.73;100.00;101389.13;5054761;28;20055;-81
2023/02/22 04:37:28;;;;;;;101.38;31.67;;;;;;;2.74;100.00;101389.94;5054680;28;20036;-82
2023/02/22 04:39:53;;;;;;;102.07;32.60;;;;;;;2.71;100.00;101385.69;5036708;28;20111;-82
2023/02/22 04:42:18;;;;;;;101.60;33.28;;;;;;;2.74;100.00;101382.91;5054365;28;20056;-82
2023/02/22 04:44:44;;;;;;;95.90;30.30;;;;;;;2.71;100.00;101383.06;5054582;28;20485;-82
2023/02/22 04:47:09;;;;;;;102.32;32.42;;;;;;;2.71;100.00;101385.69;5053107;28;20397;-82
2023/02/22 04:49:34;;;;;;;92.18;30.60;;;;;;;2.69;100.00;101382.28;5054287;28;20401;-83
2023/02/22 04:52:00;;;;;;;98.30;29.88;;;;;;;2.69;100.00;101381.41;5054628;28;20037;-83
2023/02/22 04:54:25;;;;;;;105.38;30.30;;;;;;;2.65;100.00;101376.31;5053995;28;20061;-83
2023/02/22 04:56:51;;;;;;;107.18;32.45;;;;;;;2.65;100.00;101376.31;5054484;28;20044;-82
2023/02/22 04:59:18;;;;;;;109.43;32.47;;;;;;;2.66;100.00;101379.81;5053795;28;20040;-83
2023/02/22 05:01:44;;;;;;;111.32;33.55;;;;;;;2.67;100.00;101378.03;5054531;28;20462;-82
2023/02/22 05:04:10;;;;;;;117.28;34.47;;;;;;;2.67;100.00;101370.16;5054105;28;20048;-82
2023/02/22 05:06:35;;;;;;;106.50;32.58;;;;;;;2.67;100.00;101367.53;5054147;28;20036;-82
2023/02/22 05:09:01;;;;;;;113.72;34.33;;;;;;;2.68;100.00;101370.06;5054569;28;20033;-82
2023/02/22 05:11:26;;;;;;;116.38;34.10;;;;;;;2.69;100.00;101371.78;5053902;28;20029;-82
2023/02/22 05:13:52;;;;;;;113.13;33.03;;;;;;;2.70;100.00;101368.22;5054277;28;20033;-82
2023/02/22 05:16:18;;;;;;;101.97;32.78;;;;;;;2.72;100.00;101368.16;5035466;28;20124;-82
2023/02/22 05:18:43;;;;;;;113.97;33.63;;;;;;;2.71;100.00;101366.44;5053879;28;20037;-82
2023/02/22 05:21:09;;;;;;;114.97;33.75;;;;;;;2.73;100.00;101361.97;5053865;28;20036;-81
2023/02/22 05:23:34;;;;;;;107.00;31.65;;;;;;;2.73;100.00;101359.34;5053776;28;20033;-82
2023/02/22 05:25:59;;;;;;;112.93;33.83;;;;;;;2.74;100.00;101361.03;5053810;28;20492;-81
2023/02/22 05:28:26;;;;;;;116.50;32.90;;;;;;;2.74;100.00;101356.63;5035409;28;20112;-81
2023/02/22 05:30:51;;;;;;;120.32;33.85;;;;;;;2.74;100.00;101347.91;5053613;28;20032;-81
2023/02/22 05:33:17;;;;;;;110.20;32.45;;;;;;;2.76;100.00;101346.03;5053748;28;20037;-82
2023/02/22 05:35:43;;;;;;;142.07;35.28;;;;;;;2.76;100.00;101349.53;5053290;28;20040;-81
2023/02/22 05:38:13;;;;;;;116.40;33.42;;;;;;;2.77;100.00;101358.25;5053234;28;20033;-81
2023/02/22 05:40:39;;;;;;;126.20;35.03;;;;;;;2.79;100.00;101348.50;5035177;28;20139;-83
2023/02/22 05:43:05;;;;;;;119.38;32.60;;;;;;;2.79;100.00;101346.75;5053581;28;20109;-82
2023/02/22 05:45:30;;;;;;;128.25;33.30;;;;;;;2.79;100.00;101345.88;5051574;28;20389;-80
2023/02/22 05:47:56;;;;;;;119.70;32.53;;;;;;;2.80;100.00;101337.91;5053117;28;20358;-81
2023/02/22 05:50:22;;;;;;;128.98;33.33;;;;;;;2.82;100.00;101332.59;5052642;28;20055;-80
2023/02/22 05:52:47;;;;;;;135.65;33.83;;;;;;;2.82;100.00;101351.84;5053339;28;20033;-79
2023/02/22 05:55:16;;;;;;;132.07;32.67;;;;;;;2.81;100.00;101337.00;5052705;28;20056;-83
2023/02/22 05:57:41;;;;;;;131.88;33.08;;;;;;;2.82;100.00;101327.34;5052927;28;20480;-80
2023/02/22 06:00:10;;;;;;;138.93;33.17;;;;;;;2.82;100.00;101330.84;5052847;28;20036;-80
2023/02/22 06:02:35;;;;;;;136.07;33.35;;;;;;;2.79;100.00;101323.09;5052753;28;20028;-80
2023/02/22 06:05:01;;;;;;;121.63;31.02;;;;;;;2.81;100.00;101315.97;5053075;28;20052;-80
2023/02/22 06:07:26;;;;;;;130.63;30.33;;;;;;;2.82;100.00;101306.31;5052186;28;20039;-80
2023/02/22 06:09:52;;;;;;;127.53;30.15;;;;;;;2.83;100.00;101306.22;5053400;28;20537;-80
2023/02/22 06:12:18;;;;;;;129.57;29.88;;;;;;;2.83;100.00;101298.34;5053153;28;20039;-80
2023/02/22 06:14:45;;;;;;;111.63;30.02;;;;;;;2.83;100.00;101289.63;5052391;28;20068;-80
2023/02/22 06:17:12;;;;;;;134.00;28.77;;;;;;;2.86;100.00;101304.38;5052815;28;20036;-80
2023/02/22 06:19:39;;;;;;;103.00;26.92;;;;;;;2.86;100.00;101278.94;5034544;28;20121;-80
2023/02/22 06:22:05;;;;;;;100.72;29.67;;;;;;;2.89;100.00;101283.19;5053062;28;20040;-81
2023/02/22 06:24:31;;;;;;;116.15;29.73;;;;;;;2.89;100.00;101284.03;5052960;28;20041;-81
2023/02/22 06:27:00;;;;;;;127.78;31.00;;;;;;;2.91;100.00;101289.22;5052795;28;20127;-81
2023/02/22 06:29:26;;;;;;;106.13;28.75;;;;;;;2.93;100.00;101311.03;5052321;28;20040;-83
2023/02/22 06:31:52;;;;;;;122.38;28.10;;;;;;;2.95;100.00;101317.91;5035409;28;20546;-80
2023/02/22 06:34:18;;;;;;;129.52;28.83;;;;;;;2.96;100.00;101309.09;5052915;28;20111;-80
2023/02/22 06:36:43;;;;;;;132.60;28.02;;;;;;;2.96;100.00;101309.09;5052579;28;20025;-80
2023/02/22 06:39:09;;;;;;;114.07;28.20;;;;;;;2.92;100.00;101312.81;5052925;28;20057;-82
2023/02/22 06:41:39;;;;;;;101.05;26.38;;;;;;;2.94;100.00;101313.59;5052763;28;20029;-82
2023/02/22 06:44:05;;;;;;;119.80;28.85;;;;;;;2.95;100.00;101314.44;5052878;28;20037;-83
2023/02/22 06:46:34;;;;;;;102.65;27.58;;;;;;;2.96;100.00;101306.47;5052711;28;20089;-81
2023/02/22 06:48:59;;;;;;;90.53;26.48;;;;;;;2.96;100.00;101309.09;5052864;28;20029;-81
2023/02/22 06:51:26;;;;;;;97.25;26.67;;;;;;;2.97;100.00;101302.91;5052882;28;20063;-81
2023/02/22 06:53:52;;;;;;;97.28;25.65;;;;;;;3.01;100.00;101306.22;5052521;28;20075;-81
2023/02/22 06:56:17;;;;;;;96.93;25.48;;;;;;;3.03;100.00;101298.25;5035194;28;20120;-80
2023/02/22 06:58:43;;;;;;;116.13;27.92;;;;;;;3.05;100.00;101317.47;5050714;28;20024;-80
2023/02/22 07:01:08;;;;;;;92.70;25.38;;;;;;;3.00;100.00;101308.03;5051285;28;20048;-80
2023/02/22 07:03:35;;;;;;;89.90;25.25;;;;;;;3.02;100.00;101321.09;5051987;28;20047;-77
2023/02/22 07:06:01;;;;;;;100.38;24.35;;;;;;;3.00;100.00;101320.28;5052756;28;20037;-79
2023/02/22 07:08:27;;;;;;;80.15;22.83;;;;;;;3.02;100.00;101312.34;5056365;28;20480;-77
2023/02/22 07:10:52;;;;;;;74.97;23.52;;;;;;;3.02;100.00;101313.19;5056161;28;20047;-79
2023/02/22 07:13:18;;;;;;;79.03;23.25;;;;;;;3.06;100.00;101313.88;5060509;28;20033;-80
2023/02/22 07:15:43;;;;;;;77.40;23.55;;;;;;;3.08;100.00;101309.41;5062392;28;20033;-79
2023/02/22 07:18:10;;;;;;;74.97;23.95;;;;;;;3.10;100.00;101320.69;5060003;28;20072;-78
2023/02/22 07:20:36;;;;;;;80.57;24.77;;;;;;;3.14;100.00;101319.59;5062192;28;20044;-81
2023/02/22 07:23:02;;;;;;;79.93;23.45;;;;;;;3.17;100.00;101322.91;5069324;28;20048;-78
2023/02/22 07:25:27;;;;;;;74.25;23.05;;;;;;;3.17;100.00;101320.28;5074128;28;20033;-74
2023/02/22 07:27:53;;;;;;;70.60;24.30;;;;;;;3.19;100.00;101330.72;5072356;28;20081;-79
2023/02/22 07:30:29;;;;;;;78.65;24.77;;;;;;;3.21;100.00;101330.63;5073104;28;20068;-76
2023/02/22 07:32:57;;;;;;;84.78;23.60;;;;;;;3.23;100.00;101327.00;5072219;28;20032;-79
2023/02/22 07:35:25;;;;;;;82.93;23.10;;;;;;;3.27;100.00;101325.94;5072655;28;20051;-81
2023/02/22 07:37:51;;;;;;;71.07;23.70;;;;;;;3.23;100.00;101320.91;5072702;28;20055;-80
2023/02/22 07:40:18;;;;;;;83.40;23.65;;;;;;;3.25;100.00;101327.78;5072546;28;20465;-79
2023/02/22 07:42:58;;;;;;;78.95;24.25;;;;;;;3.27;100.00;101325.94;5072548;28;20071;-80
2023/02/22 07:45:32;;;;;;;77.55;23.60;;;;;;;3.31;100.00;101337.13;5074256;28;20070;-80
2023/02/22 07:47:59;;;;;;;70.43;23.35;;;;;;;3.33;100.00;101330.88;5072917;28;20038;-81
2023/02/22 07:50:26;;;;;;;72.40;23.27;;;;;;;3.37;100.00;101330.69;5073045;28;20487;-82
2023/02/22 07:52:53;;;;;;;63.35;23.35;;;;;;;3.38;100.00;101321.88;5054450;28;20496;-80
2023/02/22 07:55:22;;;;;;;65.32;22.17;;;;;;;3.40;100.00;101328.75;5076515;28;20040;-80
2023/02/22 07:57:49;;;;;;;76.88;24.77;;;;;;;3.33;100.00;101322.97;5071965;28;20395;-79
2023/02/22 08:00:20;;;;;;;71.63;23.30;;;;;;;3.37;100.00;101309.66;5072943;28;20506;-80
2023/02/22 08:02:46;;;;;;;;;;;;;;;3.39;100.00;101302.53;5073302;28;20043;-78
2023/02/22 08:05:13;;;;;;;57.97;21.40;;;;;;;3.40;100.00;101309.50;5072221;28;19916;-80
2023/02/22 08:07:39;;;;;;;66.85;22.77;;;;;;;3.40;100.00;101309.50;5071774;28;20028;-79
2023/02/22 08:10:06;;;;;;;61.13;22.23;;;;;;;3.37;100.00;101314.91;5075835;28;20036;-78
2023/02/22 08:12:36;;;;;;;70.95;22.58;;;;;;;3.38;100.00;101308.72;5054374;28;20036;-77
2023/02/22 08:15:07;;;;;;;59.25;21.27;;;;;;;3.42;100.00;101305.00;5054580;28;20040;-80
2023/02/22 08:17:33;;;;;;;60.50;21.85;;;;;;;3.43;100.00;101299.66;5071183;28;20116;-77
2023/02/22 08:19:58;;;;;;;63.17;21.83;;;;;;;3.47;100.00;101301.19;5071547;28;20377;-78
2023/02/22 08:22:26;;;;;;;67.90;22.98;;;;;;;3.52;100.00;101307.06;5072235;28;20032;-79
2023/02/22 08:24:53;;;;;;;68.50;23.27;;;;;;;3.60;100.00;101297.88;5071844;28;20524;-82
2023/02/22 08:27:29;;;;;;;69.57;23.15;;;;;;;3.67;100.00;101280.84;5072118;28;20112;-80
2023/02/22 08:29:55;;;;;;;61.72;21.88;;;;;;;3.70;100.00;101283.31;5071456;28;20124;-80
2023/02/22 08:32:21;;;;;;;55.55;21.80;;;;;;;3.75;100.00;101283.91;5071785;28;20459;-79
2023/02/22 08:34:46;;;;;;;54.78;22.35;;;;;;;3.81;100.00;101280.94;5071673;28;20401;-79
2023/02/22 08:37:13;;;;;;;59.28;22.77;;;;;;;3.85;100.00;101276.34;5072211;28;20036;-80
2023/02/22 08:39:38;;;;;;;57.13;21.52;;;;;;;3.93;100.00;101276.78;5071502;28;20041;-82
2023/02/22 08:42:04;;;;;;;56.65;21.55;;;;;;;3.97;100.00;101275.69;5071247;28;20094;-79
2023/02/22 08:44:29;;;;;;;49.42;20.05;;;;;;;4.02;100.00;101271.00;5071969;28;20429;-79
2023/02/22 08:46:54;;;;;;;53.45;19.42;;;;;;;4.09;100.00;101257.47;5071256;28;20090;-80
2023/02/22 08:49:20;;;;;;;46.58;20.83;;;;;;;4.13;100.00;101259.00;5070855;28;20047;-79
2023/02/22 08:51:46;;;;;;;48.28;20.08;;;;;;;4.25;100.00;101255.66;5063865;28;20476;-79
2023/02/22 08:54:12;;;;;;;45.42;19.63;;;;;;;4.34;100.00;101263.03;5071478;28;20035;-79
2023/02/22 08:56:37;;;;;;;40.03;18.05;;;;;;;4.46;100.00;101242.19;5053493;28;20059;-79
2023/02/22 08:59:02;;;;;;;46.50;19.23;;;;;;;4.57;100.00;101252.97;5071284;28;20044;-80
2023/02/22 09:01:28;;;;;;;38.28;17.90;;;;;;;4.59;100.00;101259.81;5071288;28;20028;-79
2023/02/22 09:03:55;;;;;;;39.53;19.20;;;;;;;4.63;100.00;101262.28;5070994;28;20119;-79
2023/02/22 09:06:20;;;;;;;39.15;18.55;;;;;;;4.78;100.00;101256.13;5070856;28;20549;-76
2023/02/22 09:08:46;;;;;;;44.00;20.23;;;;;;;4.91;100.00;101254.44;5070418;28;20123;-77
2023/02/22 09:11:11;;;;;;;37.53;18.55;;;;;;;5.05;100.00;101250.97;5071023;28;20044;-79
2023/02/22 09:13:37;;;;;;;33.50;16.88;;;;;;;5.18;100.00;101255.50;5070888;28;20039;-80
2023/02/22 09:16:02;;;;;;;37.03;17.95;;;;;;;5.26;100.00;101248.81;5070611;28;20039;-78
2023/02/22 09:18:28;;;;;;;35.03;17.92;;;;;;;5.35;100.00;101241.28;5070645;28;20036;-78
2023/02/22 09:20:53;;;;;;;34.97;18.17;;;;;;;5.37;100.00;101229.66;5036779;28;20047;-79
2023/02/22 09:23:20;;;;;;;39.42;18.02;;;;;;;5.46;100.00;101239.66;5072316;28;20469;-80
2023/02/22 09:25:46;;;;;;;34.28;18.05;;;;;;;5.48;100.00;101247.47;5072187;28;20143;-79
2023/02/22 09:28:12;;;;;;;37.15;18.60;;;;;;;5.49;100.00;101265.00;5073663;28;20033;-74
2023/02/22 09:30:37;;;;;;;34.13;17.67;;;;;;;5.51;100.00;101286.00;5073563;28;20457;-77
2023/02/22 09:33:08;;;;;;;38.90;19.08;;;;;;;5.53;100.00;101286.78;5052719;28;20086;-77
2023/02/22 09:35:34;;;;;;;33.35;17.73;;;;;;;5.55;100.00;101277.81;5072626;28;20032;-78
2023/02/22 09:38:02;;;;;;;35.08;18.42;;;;;;;5.55;100.00;101282.25;5070257;28;20032;-80
2023/02/22 09:40:30;;;;;;;35.25;17.20;;;;;;;5.59;100.00;101300.44;5070265;28;20086;-80
2023/02/22 09:43:16;;;;;;;36.50;18.17;;;;;;;5.62;100.00;101299.41;5070193;28;20032;-80
2023/02/22 09:46:01;;;;;;;30.33;17.13;;;;;;;5.54;100.00;101291.09;5067615;28;20111;-81
2023/02/22 09:48:30;;;;;;;36.85;17.75;;;;;;;5.56;100.00;101273.41;5071464;28;20074;-80
2023/02/22 09:50:59;;;;;;;32.20;16.88;;;;;;;5.49;100.00;101270.28;5072336;28;20127;-81
2023/02/22 09:53:40;;;;;;;31.52;17.20;;;;;;;5.57;100.00;101264.50;5073220;28;20441;-81
2023/02/22 09:56:09;;;;;;;30.23;16.55;;;;;;;5.60;100.00;101267.00;5073114;28;20036;-81
2023/02/22 09:58:53;;;;;;;32.13;17.40;;;;;;;5.59;100.00;101274.03;5055089;28;20119;-81
2023/02/22 10:01:25;;;;;;;32.83;17.30;;;;;;;5.61;100.00;101264.25;5073066;28;20044;-81
2023/02/22 10:03:57;;;;;;;30.73;16.90;;;;;;;5.56;100.00;101255.75;5072532;28;20037;-80
2023/02/22 10:06:24;;;;;;;32.13;17.40;;;;;;;5.58;100.00;101253.88;5072965;28;20036;-81
2023/02/22 10:08:57;;;;;;;30.13;16.90;;;;;;;5.57;100.00;101251.31;5073350;28;20051;-81
2023/02/22 10:11:47;;;;;;;34.55;17.73;;;;;;;5.62;100.00;101244.81;5072904;28;20036;-79
2023/02/22 10:14:16;;;;;;;34.00;17.00;;;;;;;5.62;100.00;101259.81;5070118;28;20035;-78
2023/02/22 10:17:14;;;;;;;33.47;17.55;;;;;;;5.61;100.00;101276.59;5072078;28;20029;-79
2023/02/22 10:19:42;;;;;;;37.65;18.08;;;;;;;5.61;100.00;101287.16;5067650;28;20453;-78
2023/02/22 10:22:10;;;;;;;36.78;18.33;;;;;;;5.62;100.00;101288.84;5052776;28;20037;-76
2023/02/22 10:25:06;;;;;;;35.00;17.73;;;;;;;5.57;100.00;101285.63;5052114;28;20116;-76
2023/02/22 10:27:41;;;;;;;35.05;18.20;;;;;;;5.57;100.00;101278.56;5053130;28;20033;-79
2023/02/22 10:30:29;;;;;;;37.35;18.17;;;;;;;5.71;100.00;101277.69;5051606;28;20396;-81
2023/02/22 10:33:22;;;;;;;34.75;18.38;;;;;;;5.89;100.00;101267.75;5053741;28;20052;-79
2023/02/22 10:35:47;;;;;;;36.38;18.85;;;;;;;6.08;100.00;101278.03;5049180;28;20041;-84
2023/02/22 10:38:22;;;;;;;35.17;18.55;;;;;;;6.31;100.00;101273.88;5053165;28;20044;-83
2023/02/22 10:41:22;;;;;;;33.28;18.40;;;;;;;6.49;100.00;101279.78;5052491;28;20045;-83
2023/02/22 10:43:48;;;;;;;34.92;17.55;;;;;;;6.68;100.00;101262.66;5051216;28;20068;-79
2023/02/22 10:46:19;;;;;;;29.90;17.08;;;;;;;6.84;100.00;101252.75;5051884;28;20110;-82
2023/02/22 10:48:50;;;;;;;30.83;16.77;;;;;;;6.98;100.00;101254.44;5053277;28;20040;-82
2023/02/22 10:51:16;;;;;;;33.40;16.15;;;;;;;7.09;100.00;101256.34;5053316;28;20558;-82
2023/02/22 10:53:41;;;;;;;28.80;16.15;;;;;;;7.17;100.00;101238.13;5052398;28;20115;-82
2023/02/22 10:56:16;;;;;;;29.35;16.80;;;;;;;7.32;100.00;101232.72;5052278;28;20037;-79
2023/02/22 10:58:53;;;;;;;28.65;16.08;;;;;;;7.42;100.00;101231.13;5050938;28;20119;-81
2023/02/22 11:01:26;;;;;;;28.73;16.73;;;;;;;7.54;100.00;101226.75;5052419;28;20059;-80
2023/02/22 11:04:04;;;;;;;28.73;15.77;;;;;;;7.56;100.00;101223.00;5052061;28;20055;-79
2023/02/22 11:06:33;;;;;;;30.25;16.38;;;;;;;7.63;100.00;101219.91;5051822;28;20064;-79
2023/02/22 11:09:12;;;;;;;28.05;15.55;;;;;;;7.63;100.00;101218.16;5051644;28;20025;-77
2023/02/22 11:11:46;;;;;;;27.98;16.02;;;;;;;7.76;100.00;101226.03;5052045;28;20407;-81
2023/02/22 11:14:25;;;;;;;30.45;15.65;;;;;;;7.78;100.00;101216.19;5051951;28;20079;-81
2023/02/22 11:16:52;;;;;;;28.75;15.90;;;;;;;7.62;100.00;101224.38;5053453;28;20036;-78